sensor_id;sensor_type;location;lat;lon;timestamp;P1;durP1;ratioP1;P2;durP2;ratioP2
65825;SDS011;52586;-43.152;172.732;2022-12-29T00:00:35;2.00;;;1.30;;
65825;SDS011;52586;-43.152;172.732;2022-12-29T00:03:06;1.13;;;0.90;;
65825;SDS011;52586;-43.152;172.732;2022-12-29T00:05:38;2.05;;;1.10;;
65825;SDS011;52586;-43.152;172.732;2022-12-29T00:08:09;1.55;;;0.95;;
65825;SDS011;52586;-43.152;172.732;2022-12-29T00:10:39;1.85;;;1.02;;
65825;SDS011;52586;-43.152;172.732;2022-12-29T00:13:10;2.05;;;0.98;;
65825;SDS011;52586;-43.152;172.732;2022-12-29T00:15:57;3.03;;;1.30;;
65825;SDS011;52586;-43.152;172.732;2022-12-29T00:18:27;3.38;;;1.58;;
65825;SDS011;52586;-43.152;172.732;2022-12-29T00:21:00;2.63;;;1.30;;
65825;SDS011;52586;-43.152;172.732;2022-12-29T00:23:46;3.58;;;1.30;;
65825;SDS011;52586;-43.152;172.732;2022-12-29T00:26:48;4.45;;;1.60;;
65825;SDS011;52586;-43.152;172.732;2022-12-29T00:29:37;3.25;;;1.25;;
65825;SDS011;52586;-43.152;172.732;2022-12-29T00:32:26;4.22;;;1.27;;
65825;SDS011;52586;-43.152;172.732;2022-12-29T00:35:13;2.90;;;1.52;;
65825;SDS011;52586;-43.152;172.732;2022-12-29T00:37:53;1.75;;;1.38;;
65825;SDS011;52586;-43.152;172.732;2022-12-29T00:40:41;3.38;;;1.30;;
65825;SDS011;52586;-43.152;172.732;2022-12-29T00:43:28;4.22;;;1.63;;
65825;SDS011;52586;-43.152;172.732;2022-12-29T00:46:14;2.85;;;1.20;;
65825;SDS011;52586;-43.152;172.732;2022-12-29T00:48:45;2.20;;;1.30;;
65825;SDS011;52586;-43.152;172.732;2022-12-29T00:51:32;2.65;;;1.45;;
65825;SDS011;52586;-43.152;172.732;2022-12-29T00:54:05;1.90;;;1.10;;
65825;SDS011;52586;-43.152;172.732;2022-12-29T00:56:35;1.98;;;1.15;;
65825;SDS011;52586;-43.152;172.732;2022-12-29T00:59:07;1.88;;;1.30;;
65825;SDS011;52586;-43.152;172.732;2022-12-29T01:01:39;3.38;;;1.27;;
65825;SDS011;52586;-43.152;172.732;2022-12-29T01:04:10;2.95;;;1.33;;
65825;SDS011;52586;-43.152;172.732;2022-12-29T01:06:41;2.40;;;1.13;;
65825;SDS011;52586;-43.152;172.732;2022-12-29T01:09:14;2.60;;;1.45;;
65825;SDS011;52586;-43.152;172.732;2022-12-29T01:12:00;2.25;;;1.30;;
65825;SDS011;52586;-43.152;172.732;2022-12-29T01:14:32;2.83;;;1.33;;
65825;SDS011;52586;-43.152;172.732;2022-12-29T01:17:03;1.70;;;1.15;;
65825;SDS011;52586;-43.152;172.732;2022-12-29T01:19:34;2.72;;;1.13;;
65825;SDS011;52586;-43.152;172.732;2022-12-29T01:22:04;2.40;;;1.25;;
65825;SDS011;52586;-43.152;172.732;2022-12-29T01:24:37;1.48;;;1.27;;
65825;SDS011;52586;-43.152;172.732;2022-12-29T01:27:08;2.08;;;1.20;;
65825;SDS011;52586;-43.152;172.732;2022-12-29T01:29:38;2.70;;;1.20;;
65825;SDS011;52586;-43.152;172.732;2022-12-29T01:32:10;3.03;;;1.38;;
65825;SDS011;52586;-43.152;172.732;2022-12-29T01:34:40;1.52;;;1.13;;
65825;SDS011;52586;-43.152;172.732;2022-12-29T01:37:11;2.47;;;1.40;;
65825;SDS011;52586;-43.152;172.732;2022-12-29T01:39:44;2.35;;;1.38;;
65825;SDS011;52586;-43.152;172.732;2022-12-29T01:42:15;2.20;;;1.13;;
65825;SDS011;52586;-43.152;172.732;2022-12-29T01:44:56;1.80;;;1.50;;
65825;SDS011;52586;-43.152;172.732;2022-12-29T01:47:32;1.88;;;1.10;;
65825;SDS011;52586;-43.152;172.732;2022-12-29T01:50:06;5.07;;;1.23;;
65825;SDS011;52586;-43.152;172.732;2022-12-29T01:52:42;1.40;;;1.15;;
65825;SDS011;52586;-43.152;172.732;2022-12-29T01:55:21;1.83;;;1.13;;
65825;SDS011;52586;-43.152;172.732;2022-12-29T01:57:53;1.75;;;1.20;;
65825;SDS011;52586;-43.152;172.732;2022-12-29T02:00:26;2.05;;;1.20;;
65825;SDS011;52586;-43.152;172.732;2022-12-29T02:02:57;3.25;;;1.20;;
65825;SDS011;52586;-43.152;172.732;2022-12-29T02:05:30;1.85;;;1.30;;
65825;SDS011;52586;-43.152;172.732;2022-12-29T02:08:06;1.98;;;1.13;;
65825;SDS011;52586;-43.152;172.732;2022-12-29T02:10:39;1.75;;;1.10;;
65825;SDS011;52586;-43.152;172.732;2022-12-29T02:13:11;1.65;;;1.10;;
65825;SDS011;52586;-43.152;172.732;2022-12-29T02:15:48;2.28;;;1.30;;
65825;SDS011;52586;-43.152;172.732;2022-12-29T02:18:34;1.52;;;1.20;;
65825;SDS011;52586;-43.152;172.732;2022-12-29T02:27:31;2.33;;;1.13;;
65825;SDS011;52586;-43.152;172.732;2022-12-29T02:30:31;2.88;;;1.05;;
65825;SDS011;52586;-43.152;172.732;2022-12-29T02:33:11;1.77;;;1.08;;
65825;SDS011;52586;-43.152;172.732;2022-12-29T02:35:52;1.65;;;1.15;;
65825;SDS011;52586;-43.152;172.732;2022-12-29T02:38:31;2.08;;;1.30;;
65825;SDS011;52586;-43.152;172.732;2022-12-29T02:41:19;1.67;;;1.10;;
65825;SDS011;52586;-43.152;172.732;2022-12-29T02:43:56;2.13;;;1.30;;
65825;SDS011;52586;-43.152;172.732;2022-12-29T02:46:37;3.40;;;1.17;;
65825;SDS011;52586;-43.152;172.732;2022-12-29T02:49:15;4.30;;;1.48;;
65825;SDS011;52586;-43.152;172.732;2022-12-29T02:51:54;4.65;;;1.30;;
65825;SDS011;52586;-43.152;172.732;2022-12-29T02:54:28;3.40;;;1.23;;
65825;SDS011;52586;-43.152;172.732;2022-12-29T02:57:09;2.13;;;1.30;;
65825;SDS011;52586;-43.152;172.732;2022-12-29T02:59:41;4.18;;;1.45;;
65825;SDS011;52586;-43.152;172.732;2022-12-29T03:02:23;2.67;;;1.42;;
65825;SDS011;52586;-43.152;172.732;2022-12-29T03:05:10;4.65;;;1.50;;
65825;SDS011;52586;-43.152;172.732;2022-12-29T03:07:52;2.88;;;1.40;;
65825;SDS011;52586;-43.152;172.732;2022-12-29T03:10:33;2.75;;;1.40;;
65825;SDS011;52586;-43.152;172.732;2022-12-29T03:13:12;1.90;;;1.30;;
65825;SDS011;52586;-43.152;172.732;2022-12-29T03:16:09;2.88;;;1.38;;
65825;SDS011;52586;-43.152;172.732;2022-12-29T03:18:50;3.53;;;1.58;;
65825;SDS011;52586;-43.152;172.732;2022-12-29T03:21:29;2.42;;;1.40;;
65825;SDS011;52586;-43.152;172.732;2022-12-29T03:24:19;1.85;;;1.25;;
65825;SDS011;52586;-43.152;172.732;2022-12-29T03:26:54;2.88;;;1.70;;
65825;SDS011;52586;-43.152;172.732;2022-12-29T03:29:27;3.65;;;1.88;;
65825;SDS011;52586;-43.152;172.732;2022-12-29T03:32:02;2.80;;;1.70;;
65825;SDS011;52586;-43.152;172.732;2022-12-29T03:34:35;1.98;;;1.27;;
65825;SDS011;52586;-43.152;172.732;2022-12-29T03:37:08;2.22;;;1.48;;
65825;SDS011;52586;-43.152;172.732;2022-12-29T03:39:42;1.55;;;1.13;;
65825;SDS011;52586;-43.152;172.732;2022-12-29T03:42:13;3.00;;;1.63;;
65825;SDS011;52586;-43.152;172.732;2022-12-29T03:44:46;2.42;;;1.50;;
65825;SDS011;52586;-43.152;172.732;2022-12-29T03:47:22;2.50;;;1.50;;
65825;SDS011;52586;-43.152;172.732;2022-12-29T03:49:55;1.85;;;1.20;;
65825;SDS011;52586;-43.152;172.732;2022-12-29T03:52:25;3.78;;;1.50;;
65825;SDS011;52586;-43.152;172.732;2022-12-29T03:54:56;2.92;;;1.38;;
65825;SDS011;52586;-43.152;172.732;2022-12-29T03:57:27;2.40;;;1.58;;
65825;SDS011;52586;-43.152;172.732;2022-12-29T03:59:57;3.30;;;1.30;;
65825;SDS011;52586;-43.152;172.732;2022-12-29T04:02:28;1.75;;;1.23;;
65825;SDS011;52586;-43.152;172.732;2022-12-29T04:05:00;2.05;;;1.50;;
65825;SDS011;52586;-43.152;172.732;2022-12-29T04:07:31;1.80;;;1.40;;
65825;SDS011;52586;-43.152;172.732;2022-12-29T04:10:02;2.50;;;1.50;;
65825;SDS011;52586;-43.152;172.732;2022-12-29T04:12:33;1.63;;;1.20;;
65825;SDS011;52586;-43.152;172.732;2022-12-29T04:15:04;1.30;;;1.00;;
65825;SDS011;52586;-43.152;172.732;2022-12-29T04:17:36;1.90;;;1.30;;
65825;SDS011;52586;-43.152;172.732;2022-12-29T04:20:09;4.30;;;1.20;;
65825;SDS011;52586;-43.152;172.732;2022-12-29T04:22:59;1.60;;;1.20;;
65825;SDS011;52586;-43.152;172.732;2022-12-29T04:25:31;2.72;;;1.50;;
65825;SDS011;52586;-43.152;172.732;2022-12-29T04:28:02;3.10;;;1.30;;
65825;SDS011;52586;-43.152;172.732;2022-12-29T04:30:34;1.45;;;1.20;;
65825;SDS011;52586;-43.152;172.732;2022-12-29T04:33:04;1.77;;;1.08;;
65825;SDS011;52586;-43.152;172.732;2022-12-29T04:35:37;1.35;;;0.90;;
65825;SDS011;52586;-43.152;172.732;2022-12-29T04:38:08;1.85;;;1.17;;
65825;SDS011;52586;-43.152;172.732;2022-12-29T04:40:39;1.20;;;1.10;;
65825;SDS011;52586;-43.152;172.732;2022-12-29T04:43:11;2.03;;;1.00;;
65825;SDS011;52586;-43.152;172.732;2022-12-29T04:45:43;1.17;;;1.08;;
65825;SDS011;52586;-43.152;172.732;2022-12-29T04:48:14;1.83;;;1.30;;
65825;SDS011;52586;-43.152;172.732;2022-12-29T04:50:47;1.38;;;0.98;;
65825;SDS011;52586;-43.152;172.732;2022-12-29T04:53:18;1.90;;;1.40;;
65825;SDS011;52586;-43.152;172.732;2022-12-29T04:55:49;2.17;;;1.23;;
65825;SDS011;52586;-43.152;172.732;2022-12-29T04:58:21;2.65;;;1.50;;
65825;SDS011;52586;-43.152;172.732;2022-12-29T05:00:52;1.95;;;1.38;;
65825;SDS011;52586;-43.152;172.732;2022-12-29T05:03:22;1.60;;;1.30;;
65825;SDS011;52586;-43.152;172.732;2022-12-29T05:05:55;2.60;;;1.90;;
65825;SDS011;52586;-43.152;172.732;2022-12-29T05:08:26;2.80;;;1.70;;
65825;SDS011;52586;-43.152;172.732;2022-12-29T05:10:57;3.53;;;1.90;;
65825;SDS011;52586;-43.152;172.732;2022-12-29T05:13:28;2.97;;;2.08;;
65825;SDS011;52586;-43.152;172.732;2022-12-29T05:15:59;3.58;;;2.33;;
65825;SDS011;52586;-43.152;172.732;2022-12-29T05:18:29;3.72;;;1.88;;
65825;SDS011;52586;-43.152;172.732;2022-12-29T05:21:02;3.17;;;1.92;;
65825;SDS011;52586;-43.152;172.732;2022-12-29T05:23:32;2.95;;;1.80;;
65825;SDS011;52586;-43.152;172.732;2022-12-29T05:26:03;4.35;;;2.08;;
65825;SDS011;52586;-43.152;172.732;2022-12-29T05:28:34;2.92;;;1.80;;
65825;SDS011;52586;-43.152;172.732;2022-12-29T05:31:05;3.45;;;2.00;;
65825;SDS011;52586;-43.152;172.732;2022-12-29T05:33:35;3.05;;;1.70;;
65825;SDS011;52586;-43.152;172.732;2022-12-29T05:36:08;2.67;;;1.67;;
65825;SDS011;52586;-43.152;172.732;2022-12-29T05:38:40;2.67;;;1.63;;
65825;SDS011;52586;-43.152;172.732;2022-12-29T05:41:10;2.28;;;1.50;;
65825;SDS011;52586;-43.152;172.732;2022-12-29T05:43:41;2.47;;;1.40;;
65825;SDS011;52586;-43.152;172.732;2022-12-29T05:46:12;2.65;;;1.40;;
65825;SDS011;52586;-43.152;172.732;2022-12-29T05:48:43;1.80;;;1.52;;
65825;SDS011;52586;-43.152;172.732;2022-12-29T05:51:15;2.78;;;1.58;;
65825;SDS011;52586;-43.152;172.732;2022-12-29T05:53:46;2.58;;;1.63;;
65825;SDS011;52586;-43.152;172.732;2022-12-29T05:56:17;1.83;;;1.33;;
65825;SDS011;52586;-43.152;172.732;2022-12-29T05:58:47;1.88;;;1.45;;
65825;SDS011;52586;-43.152;172.732;2022-12-29T06:01:18;2.58;;;1.58;;
65825;SDS011;52586;-43.152;172.732;2022-12-29T06:03:49;4.18;;;1.73;;
65825;SDS011;52586;-43.152;172.732;2022-12-29T06:06:21;2.40;;;1.45;;
65825;SDS011;52586;-43.152;172.732;2022-12-29T06:08:52;2.45;;;1.52;;
65825;SDS011;52586;-43.152;172.732;2022-12-29T06:11:23;2.20;;;1.40;;
65825;SDS011;52586;-43.152;172.732;2022-12-29T06:13:53;2.35;;;1.23;;
65825;SDS011;52586;-43.152;172.732;2022-12-29T06:16:24;2.03;;;1.25;;
65825;SDS011;52586;-43.152;172.732;2022-12-29T06:18:55;2.05;;;1.25;;
65825;SDS011;52586;-43.152;172.732;2022-12-29T06:21:27;4.13;;;1.40;;
65825;SDS011;52586;-43.152;172.732;2022-12-29T06:23:58;2.58;;;1.33;;
65825;SDS011;52586;-43.152;172.732;2022-12-29T06:26:29;3.00;;;1.30;;
65825;SDS011;52586;-43.152;172.732;2022-12-29T06:29:03;1.63;;;1.38;;
65825;SDS011;52586;-43.152;172.732;2022-12-29T06:31:37;2.20;;;1.20;;
65825;SDS011;52586;-43.152;172.732;2022-12-29T06:34:12;2.03;;;1.30;;
65825;SDS011;52586;-43.152;172.732;2022-12-29T06:36:50;2.45;;;1.27;;
65825;SDS011;52586;-43.152;172.732;2022-12-29T06:39:20;1.90;;;1.33;;
65825;SDS011;52586;-43.152;172.732;2022-12-29T06:41:52;1.73;;;1.20;;
65825;SDS011;52586;-43.152;172.732;2022-12-29T06:44:23;2.47;;;1.30;;
65825;SDS011;52586;-43.152;172.732;2022-12-29T06:46:53;1.77;;;1.15;;
65825;SDS011;52586;-43.152;172.732;2022-12-29T06:49:24;2.42;;;1.10;;
65825;SDS011;52586;-43.152;172.732;2022-12-29T06:51:57;2.55;;;1.30;;
65825;SDS011;52586;-43.152;172.732;2022-12-29T06:54:30;1.00;;;0.90;;
65825;SDS011;52586;-43.152;172.732;2022-12-29T06:57:00;1.75;;;1.08;;
65825;SDS011;52586;-43.152;172.732;2022-12-29T06:59:31;3.25;;;1.27;;
65825;SDS011;52586;-43.152;172.732;2022-12-29T07:02:02;1.80;;;1.10;;
65825;SDS011;52586;-43.152;172.732;2022-12-29T07:04:32;1.30;;;1.00;;
65825;SDS011;52586;-43.152;172.732;2022-12-29T07:07:05;1.58;;;1.10;;
65825;SDS011;52586;-43.152;172.732;2022-12-29T07:09:36;2.13;;;1.10;;
65825;SDS011;52586;-43.152;172.732;2022-12-29T07:12:06;1.80;;;1.10;;
65825;SDS011;52586;-43.152;172.732;2022-12-29T07:14:37;1.90;;;1.20;;
65825;SDS011;52586;-43.152;172.732;2022-12-29T07:17:08;2.25;;;0.90;;
65825;SDS011;52586;-43.152;172.732;2022-12-29T07:19:38;2.10;;;1.15;;
65825;SDS011;52586;-43.152;172.732;2022-12-29T07:22:12;1.80;;;1.00;;
65825;SDS011;52586;-43.152;172.732;2022-12-29T07:24:42;2.45;;;1.10;;
65825;SDS011;52586;-43.152;172.732;2022-12-29T07:27:13;1.45;;;0.90;;
65825;SDS011;52586;-43.152;172.732;2022-12-29T07:29:44;1.50;;;0.80;;
65825;SDS011;52586;-43.152;172.732;2022-12-29T07:32:14;3.53;;;1.10;;
65825;SDS011;52586;-43.152;172.732;2022-12-29T07:34:45;1.25;;;0.85;;
65825;SDS011;52586;-43.152;172.732;2022-12-29T07:37:18;1.80;;;1.10;;
65825;SDS011;52586;-43.152;172.732;2022-12-29T07:39:48;1.63;;;0.98;;
65825;SDS011;52586;-43.152;172.732;2022-12-29T07:42:19;2.38;;;1.17;;
65825;SDS011;52586;-43.152;172.732;2022-12-29T07:44:50;1.75;;;1.10;;
65825;SDS011;52586;-43.152;172.732;2022-12-29T07:47:20;1.48;;;1.15;;
65825;SDS011;52586;-43.152;172.732;2022-12-29T07:50:01;1.17;;;0.80;;
65825;SDS011;52586;-43.152;172.732;2022-12-29T07:52:34;1.58;;;1.10;;
65825;SDS011;52586;-43.152;172.732;2022-12-29T07:55:05;1.67;;;0.93;;
65825;SDS011;52586;-43.152;172.732;2022-12-29T07:57:36;1.98;;;1.00;;
65825;SDS011;52586;-43.152;172.732;2022-12-29T08:00:07;0.80;;;0.77;;
65825;SDS011;52586;-43.152;172.732;2022-12-29T08:02:38;1.15;;;0.88;;
65825;SDS011;52586;-43.152;172.732;2022-12-29T08:05:09;1.60;;;0.90;;
65825;SDS011;52586;-43.152;172.732;2022-12-29T08:07:42;1.10;;;0.80;;
65825;SDS011;52586;-43.152;172.732;2022-12-29T08:10:13;1.38;;;0.82;;
65825;SDS011;52586;-43.152;172.732;2022-12-29T08:12:44;1.67;;;1.10;;
65825;SDS011;52586;-43.152;172.732;2022-12-29T08:15:15;1.52;;;0.88;;
65825;SDS011;52586;-43.152;172.732;2022-12-29T08:17:46;2.47;;;1.15;;
65825;SDS011;52586;-43.152;172.732;2022-12-29T08:20:16;2.10;;;0.88;;
65825;SDS011;52586;-43.152;172.732;2022-12-29T08:22:49;0.85;;;0.73;;
65825;SDS011;52586;-43.152;172.732;2022-12-29T08:25:21;1.38;;;0.70;;
65825;SDS011;52586;-43.152;172.732;2022-12-29T08:27:51;1.20;;;0.70;;
65825;SDS011;52586;-43.152;172.732;2022-12-29T08:30:22;1.65;;;1.05;;
65825;SDS011;52586;-43.152;172.732;2022-12-29T08:32:53;1.05;;;0.77;;
65825;SDS011;52586;-43.152;172.732;2022-12-29T08:35:24;1.20;;;0.88;;
65825;SDS011;52586;-43.152;172.732;2022-12-29T08:37:56;2.03;;;0.80;;
65825;SDS011;52586;-43.152;172.732;2022-12-29T08:40:27;1.15;;;0.80;;
65825;SDS011;52586;-43.152;172.732;2022-12-29T08:42:58;2.08;;;0.85;;
65825;SDS011;52586;-43.152;172.732;2022-12-29T08:45:28;1.58;;;0.80;;
65825;SDS011;52586;-43.152;172.732;2022-12-29T08:47:59;1.67;;;0.75;;
65825;SDS011;52586;-43.152;172.732;2022-12-29T08:53:09;2.38;;;1.00;;
65825;SDS011;52586;-43.152;172.732;2022-12-29T08:55:40;1.58;;;1.08;;
65825;SDS011;52586;-43.152;172.732;2022-12-29T08:58:11;1.40;;;0.90;;
65825;SDS011;52586;-43.152;172.732;2022-12-29T09:00:42;1.73;;;0.93;;
65825;SDS011;52586;-43.152;172.732;2022-12-29T09:03:13;2.03;;;1.00;;
65825;SDS011;52586;-43.152;172.732;2022-12-29T09:05:46;1.20;;;0.88;;
65825;SDS011;52586;-43.152;172.732;2022-12-29T09:08:19;1.50;;;0.90;;
65825;SDS011;52586;-43.152;172.732;2022-12-29T09:10:50;1.38;;;0.82;;
65825;SDS011;52586;-43.152;172.732;2022-12-29T09:13:21;1.40;;;0.80;;
65825;SDS011;52586;-43.152;172.732;2022-12-29T09:15:57;2.45;;;1.00;;
65825;SDS011;52586;-43.152;172.732;2022-12-29T09:18:28;1.50;;;0.93;;
65825;SDS011;52586;-43.152;172.732;2022-12-29T09:20:59;2.65;;;0.93;;
65825;SDS011;52586;-43.152;172.732;2022-12-29T09:23:35;3.28;;;1.10;;
65825;SDS011;52586;-43.152;172.732;2022-12-29T09:26:06;3.28;;;1.05;;
65825;SDS011;52586;-43.152;172.732;2022-12-29T09:28:37;1.27;;;0.80;;
65825;SDS011;52586;-43.152;172.732;2022-12-29T09:31:07;4.07;;;0.93;;
65825;SDS011;52586;-43.152;172.732;2022-12-29T09:33:38;4.53;;;1.17;;
65825;SDS011;52586;-43.152;172.732;2022-12-29T09:36:09;1.63;;;0.90;;
65825;SDS011;52586;-43.152;172.732;2022-12-29T09:38:42;1.45;;;0.95;;
65825;SDS011;52586;-43.152;172.732;2022-12-29T09:41:14;2.50;;;1.02;;
65825;SDS011;52586;-43.152;172.732;2022-12-29T09:43:56;1.73;;;0.95;;
65825;SDS011;52586;-43.152;172.732;2022-12-29T09:46:35;1.67;;;0.93;;
65825;SDS011;52586;-43.152;172.732;2022-12-29T09:49:12;2.15;;;0.82;;
65825;SDS011;52586;-43.152;172.732;2022-12-29T09:51:48;2.17;;;0.95;;
65825;SDS011;52586;-43.152;172.732;2022-12-29T09:54:28;2.90;;;1.10;;
65825;SDS011;52586;-43.152;172.732;2022-12-29T09:57:15;1.40;;;0.80;;
65825;SDS011;52586;-43.152;172.732;2022-12-29T09:59:51;2.15;;;0.95;;
65825;SDS011;52586;-43.152;172.732;2022-12-29T10:02:30;1.40;;;0.73;;
65825;SDS011;52586;-43.152;172.732;2022-12-29T10:05:13;1.30;;;0.90;;
65825;SDS011;52586;-43.152;172.732;2022-12-29T10:07:51;3.35;;;1.10;;
65825;SDS011;52586;-43.152;172.732;2022-12-29T10:10:36;0.73;;;0.70;;
65825;SDS011;52586;-43.152;172.732;2022-12-29T10:13:18;1.45;;;0.73;;
65825;SDS011;52586;-43.152;172.732;2022-12-29T10:15:57;1.85;;;0.80;;
65825;SDS011;52586;-43.152;172.732;2022-12-29T10:21:39;1.58;;;0.90;;
65825;SDS011;52586;-43.152;172.732;2022-12-29T10:24:18;1.60;;;0.80;;
65825;SDS011;52586;-43.152;172.732;2022-12-29T10:26:52;1.63;;;0.80;;
65825;SDS011;52586;-43.152;172.732;2022-12-29T10:29:25;1.40;;;0.90;;
65825;SDS011;52586;-43.152;172.732;2022-12-29T10:32:02;1.58;;;0.82;;
65825;SDS011;52586;-43.152;172.732;2022-12-29T10:34:36;1.63;;;0.80;;
65825;SDS011;52586;-43.152;172.732;2022-12-29T10:37:11;1.02;;;0.73;;
65825;SDS011;52586;-43.152;172.732;2022-12-29T10:39:51;1.52;;;0.82;;
65825;SDS011;52586;-43.152;172.732;2022-12-29T10:42:27;0.77;;;0.65;;
65825;SDS011;52586;-43.152;172.732;2022-12-29T10:45:02;1.10;;;0.70;;
65825;SDS011;52586;-43.152;172.732;2022-12-29T10:47:34;0.90;;;0.80;;
65825;SDS011;52586;-43.152;172.732;2022-12-29T10:50:11;1.00;;;0.70;;
65825;SDS011;52586;-43.152;172.732;2022-12-29T10:52:42;0.93;;;0.73;;
65825;SDS011;52586;-43.152;172.732;2022-12-29T10:55:16;1.67;;;0.90;;
65825;SDS011;52586;-43.152;172.732;2022-12-29T10:57:53;1.27;;;0.77;;
65825;SDS011;52586;-43.152;172.732;2022-12-29T11:00:25;1.40;;;0.70;;
65825;SDS011;52586;-43.152;172.732;2022-12-29T11:03:02;1.55;;;0.82;;
65825;SDS011;52586;-43.152;172.732;2022-12-29T11:05:46;2.20;;;0.80;;
65825;SDS011;52586;-43.152;172.732;2022-12-29T11:08:25;1.77;;;0.90;;
65825;SDS011;52586;-43.152;172.732;2022-12-29T11:11:00;1.45;;;0.70;;
65825;SDS011;52586;-43.152;172.732;2022-12-29T11:13:34;1.45;;;0.60;;
65825;SDS011;52586;-43.152;172.732;2022-12-29T11:16:15;1.23;;;0.70;;
65825;SDS011;52586;-43.152;172.732;2022-12-29T11:18:58;0.80;;;0.60;;
65825;SDS011;52586;-43.152;172.732;2022-12-29T11:21:33;0.75;;;0.60;;
65825;SDS011;52586;-43.152;172.732;2022-12-29T11:24:18;1.30;;;0.73;;
65825;SDS011;52586;-43.152;172.732;2022-12-29T11:26:51;0.80;;;0.60;;
65825;SDS011;52586;-43.152;172.732;2022-12-29T11:29:26;1.38;;;0.70;;
65825;SDS011;52586;-43.152;172.732;2022-12-29T11:31:58;0.73;;;0.70;;
65825;SDS011;52586;-43.152;172.732;2022-12-29T11:34:38;1.30;;;0.80;;
65825;SDS011;52586;-43.152;172.732;2022-12-29T11:37:10;0.98;;;0.52;;
65825;SDS011;52586;-43.152;172.732;2022-12-29T11:39:45;0.95;;;0.50;;
65825;SDS011;52586;-43.152;172.732;2022-12-29T11:42:20;0.77;;;0.77;;
65825;SDS011;52586;-43.152;172.732;2022-12-29T11:45:02;0.95;;;0.60;;
65825;SDS011;52586;-43.152;172.732;2022-12-29T11:47:35;1.17;;;0.63;;
65825;SDS011;52586;-43.152;172.732;2022-12-29T11:50:06;1.35;;;0.63;;
65825;SDS011;52586;-43.152;172.732;2022-12-29T11:52:45;0.60;;;0.50;;
65825;SDS011;52586;-43.152;172.732;2022-12-29T11:55:18;0.73;;;0.60;;
65825;SDS011;52586;-43.152;172.732;2022-12-29T11:57:50;0.60;;;0.60;;
65825;SDS011;52586;-43.152;172.732;2022-12-29T12:00:25;1.02;;;0.70;;
65825;SDS011;52586;-43.152;172.732;2022-12-29T12:02:59;1.10;;;0.70;;
65825;SDS011;52586;-43.152;172.732;2022-12-29T12:05:35;0.73;;;0.63;;
65825;SDS011;52586;-43.152;172.732;2022-12-29T12:08:11;0.57;;;0.50;;
65825;SDS011;52586;-43.152;172.732;2022-12-29T12:10:48;0.85;;;0.57;;
65825;SDS011;52586;-43.152;172.732;2022-12-29T12:13:25;1.08;;;0.68;;
65825;SDS011;52586;-43.152;172.732;2022-12-29T12:16:02;1.58;;;0.50;;
65825;SDS011;52586;-43.152;172.732;2022-12-29T12:18:41;0.88;;;0.65;;
65825;SDS011;52586;-43.152;172.732;2022-12-29T12:21:20;1.02;;;0.50;;
65825;SDS011;52586;-43.152;172.732;2022-12-29T12:23:58;0.50;;;0.43;;
65825;SDS011;52586;-43.152;172.732;2022-12-29T12:26:54;0.50;;;0.50;;
65825;SDS011;52586;-43.152;172.732;2022-12-29T12:29:32;1.05;;;0.60;;
65825;SDS011;52586;-43.152;172.732;2022-12-29T12:32:11;0.95;;;0.75;;
65825;SDS011;52586;-43.152;172.732;2022-12-29T12:34:46;0.57;;;0.57;;
65825;SDS011;52586;-43.152;172.732;2022-12-29T12:37:29;0.47;;;0.40;;
65825;SDS011;52586;-43.152;172.732;2022-12-29T12:43:29;0.77;;;0.60;;
65825;SDS011;52586;-43.152;172.732;2022-12-29T12:52:05;1.05;;;0.60;;
65825;SDS011;52586;-43.152;172.732;2022-12-29T12:54:44;0.60;;;0.50;;
65825;SDS011;52586;-43.152;172.732;2022-12-29T12:57:33;0.70;;;0.55;;
65825;SDS011;52586;-43.152;172.732;2022-12-29T13:00:12;1.00;;;0.50;;
65825;SDS011;52586;-43.152;172.732;2022-12-29T13:02:49;0.60;;;0.60;;
65825;SDS011;52586;-43.152;172.732;2022-12-29T13:05:33;0.63;;;0.57;;
65825;SDS011;52586;-43.152;172.732;2022-12-29T13:08:24;1.05;;;0.60;;
65825;SDS011;52586;-43.152;172.732;2022-12-29T13:11:10;1.35;;;0.60;;
65825;SDS011;52586;-43.152;172.732;2022-12-29T13:16:45;0.80;;;0.50;;
65825;SDS011;52586;-43.152;172.732;2022-12-29T13:19:21;0.68;;;0.50;;
65825;SDS011;52586;-43.152;172.732;2022-12-29T13:22:04;0.52;;;0.50;;
65825;SDS011;52586;-43.152;172.732;2022-12-29T13:24:43;0.60;;;0.57;;
65825;SDS011;52586;-43.152;172.732;2022-12-29T13:27:25;0.57;;;0.50;;
65825;SDS011;52586;-43.152;172.732;2022-12-29T13:30:02;0.60;;;0.60;;
65825;SDS011;52586;-43.152;172.732;2022-12-29T13:32:41;0.80;;;0.50;;
65825;SDS011;52586;-43.152;172.732;2022-12-29T13:35:35;0.40;;;0.40;;
65825;SDS011;52586;-43.152;172.732;2022-12-29T13:38:23;0.40;;;0.40;;
65825;SDS011;52586;-43.152;172.732;2022-12-29T13:40:59;1.02;;;0.60;;
65825;SDS011;52586;-43.152;172.732;2022-12-29T13:43:34;2.10;;;0.65;;
65825;SDS011;52586;-43.152;172.732;2022-12-29T13:46:09;0.65;;;0.50;;
65825;SDS011;52586;-43.152;172.732;2022-12-29T13:48:44;0.88;;;0.45;;
65825;SDS011;52586;-43.152;172.732;2022-12-29T13:51:20;1.20;;;0.52;;
65825;SDS011;52586;-43.152;172.732;2022-12-29T13:53:59;0.63;;;0.43;;
65825;SDS011;52586;-43.152;172.732;2022-12-29T13:56:40;1.33;;;0.60;;
65825;SDS011;52586;-43.152;172.732;2022-12-29T13:59:20;0.50;;;0.50;;
65825;SDS011;52586;-43.152;172.732;2022-12-29T14:01:56;1.63;;;0.60;;
65825;SDS011;52586;-43.152;172.732;2022-12-29T14:04:41;0.50;;;0.50;;
65825;SDS011;52586;-43.152;172.732;2022-12-29T14:07:26;0.40;;;0.40;;
65825;SDS011;52586;-43.152;172.732;2022-12-29T14:09:59;0.60;;;0.60;;
65825;SDS011;52586;-43.152;172.732;2022-12-29T14:12:35;0.40;;;0.40;;
65825;SDS011;52586;-43.152;172.732;2022-12-29T14:15:21;0.93;;;0.60;;
65825;SDS011;52586;-43.152;172.732;2022-12-29T14:18:02;0.52;;;0.52;;
65825;SDS011;52586;-43.152;172.732;2022-12-29T14:20:47;0.47;;;0.40;;
65825;SDS011;52586;-43.152;172.732;2022-12-29T14:23:27;1.35;;;0.40;;
65825;SDS011;52586;-43.152;172.732;2022-12-29T14:26:17;0.50;;;0.50;;
65825;SDS011;52586;-43.152;172.732;2022-12-29T14:38:15;0.40;;;0.40;;
65825;SDS011;52586;-43.152;172.732;2022-12-29T14:40:53;0.82;;;0.70;;
65825;SDS011;52586;-43.152;172.732;2022-12-29T14:43:53;0.60;;;0.60;;
65825;SDS011;52586;-43.152;172.732;2022-12-29T14:46:44;0.40;;;0.40;;
65825;SDS011;52586;-43.152;172.732;2022-12-29T14:49:18;0.95;;;0.60;;
65825;SDS011;52586;-43.152;172.732;2022-12-29T14:51:51;0.88;;;0.40;;
65825;SDS011;52586;-43.152;172.732;2022-12-29T14:54:42;0.60;;;0.60;;
65825;SDS011;52586;-43.152;172.732;2022-12-29T14:57:27;0.55;;;0.55;;
65825;SDS011;52586;-43.152;172.732;2022-12-29T15:00:07;0.93;;;0.50;;
65825;SDS011;52586;-43.152;172.732;2022-12-29T15:02:49;0.60;;;0.60;;
65825;SDS011;52586;-43.152;172.732;2022-12-29T15:05:26;0.40;;;0.40;;
65825;SDS011;52586;-43.152;172.732;2022-12-29T15:08:00;0.65;;;0.47;;
65825;SDS011;52586;-43.152;172.732;2022-12-29T15:10:35;0.47;;;0.47;;
65825;SDS011;52586;-43.152;172.732;2022-12-29T15:13:16;0.70;;;0.50;;
65825;SDS011;52586;-43.152;172.732;2022-12-29T15:15:50;1.05;;;0.40;;
65825;SDS011;52586;-43.152;172.732;2022-12-29T15:18:25;0.63;;;0.50;;
65825;SDS011;52586;-43.152;172.732;2022-12-29T15:20:57;0.88;;;0.60;;
65825;SDS011;52586;-43.152;172.732;2022-12-29T15:23:29;0.52;;;0.52;;
65825;SDS011;52586;-43.152;172.732;2022-12-29T15:26:02;0.85;;;0.57;;
65825;SDS011;52586;-43.152;172.732;2022-12-29T15:28:39;0.35;;;0.35;;